sensor_id;sensor_type;location;lat;lon;timestamp;P1;durP1;ratioP1;P2;durP2;ratioP2
15043;SDS011;7619;48.562;8.910;2023-05-07T00:00:16;5.37;;;2.70;;
15043;SDS011;7619;48.562;8.910;2023-05-07T00:02:48;3.83;;;2.47;;
15043;SDS011;7619;48.562;8.910;2023-05-07T00:05:16;3.70;;;2.40;;
15043;SDS011;7619;48.562;8.910;2023-05-07T00:07:44;3.10;;;2.57;;
15043;SDS011;7619;48.562;8.910;2023-05-07T00:10:13;3.00;;;2.63;;
15043;SDS011;7619;48.562;8.910;2023-05-07T00:12:41;3.33;;;2.80;;
15043;SDS011;7619;48.562;8.910;2023-05-07T00:15:10;3.87;;;2.90;;
15043;SDS011;7619;48.562;8.910;2023-05-07T00:17:38;6.57;;;3.60;;
15043;SDS011;7619;48.562;8.910;2023-05-07T00:20:07;4.63;;;2.90;;
15043;SDS011;7619;48.562;8.910;2023-05-07T00:22:35;6.87;;;3.20;;
15043;SDS011;7619;48.562;8.910;2023-05-07T00:25:03;3.70;;;3.00;;
15043;SDS011;7619;48.562;8.910;2023-05-07T00:27:32;6.50;;;3.30;;
15043;SDS011;7619;48.562;8.910;2023-05-07T00:30:00;4.23;;;3.53;;
15043;SDS011;7619;48.562;8.910;2023-05-07T00:32:28;4.00;;;2.97;;
15043;SDS011;7619;48.562;8.910;2023-05-07T00:34:56;6.67;;;2.60;;
15043;SDS011;7619;48.562;8.910;2023-05-07T00:37:24;4.60;;;2.60;;
15043;SDS011;7619;48.562;8.910;2023-05-07T00:39:52;2.87;;;2.47;;
15043;SDS011;7619;48.562;8.910;2023-05-07T00:42:21;3.83;;;2.90;;
15043;SDS011;7619;48.562;8.910;2023-05-07T00:44:49;4.17;;;2.77;;
15043;SDS011;7619;48.562;8.910;2023-05-07T00:47:17;4.37;;;2.90;;
15043;SDS011;7619;48.562;8.910;2023-05-07T00:49:46;3.77;;;2.70;;
15043;SDS011;7619;48.562;8.910;2023-05-07T00:52:15;5.50;;;2.83;;
15043;SDS011;7619;48.562;8.910;2023-05-07T00:54:44;3.60;;;2.33;;
15043;SDS011;7619;48.562;8.910;2023-05-07T00:57:12;4.37;;;2.70;;
15043;SDS011;7619;48.562;8.910;2023-05-07T00:59:40;8.10;;;2.93;;
15043;SDS011;7619;48.562;8.910;2023-05-07T01:02:09;4.90;;;2.80;;
15043;SDS011;7619;48.562;8.910;2023-05-07T01:04:38;3.13;;;2.33;;
15043;SDS011;7619;48.562;8.910;2023-05-07T01:07:07;4.60;;;2.80;;
15043;SDS011;7619;48.562;8.910;2023-05-07T01:09:35;4.70;;;2.90;;
15043;SDS011;7619;48.562;8.910;2023-05-07T01:12:04;3.07;;;2.70;;
15043;SDS011;7619;48.562;8.910;2023-05-07T01:14:34;4.13;;;2.57;;
15043;SDS011;7619;48.562;8.910;2023-05-07T01:17:02;3.07;;;2.60;;
15043;SDS011;7619;48.562;8.910;2023-05-07T01:19:30;3.63;;;2.80;;
15043;SDS011;7619;48.562;8.910;2023-05-07T01:22:01;2.30;;;2.10;;
15043;SDS011;7619;48.562;8.910;2023-05-07T01:24:29;3.07;;;2.73;;
15043;SDS011;7619;48.562;8.910;2023-05-07T01:26:57;3.43;;;2.93;;
15043;SDS011;7619;48.562;8.910;2023-05-07T01:29:26;4.93;;;2.70;;
15043;SDS011;7619;48.562;8.910;2023-05-07T01:31:54;4.30;;;2.87;;
15043;SDS011;7619;48.562;8.910;2023-05-07T01:34:22;3.53;;;3.17;;
15043;SDS011;7619;48.562;8.910;2023-05-07T01:36:50;3.37;;;3.03;;
15043;SDS011;7619;48.562;8.910;2023-05-07T01:39:20;3.33;;;3.03;;
15043;SDS011;7619;48.562;8.910;2023-05-07T01:41:48;4.33;;;3.00;;
15043;SDS011;7619;48.562;8.910;2023-05-07T01:44:17;2.93;;;2.63;;
15043;SDS011;7619;48.562;8.910;2023-05-07T01:46:46;4.60;;;3.03;;
15043;SDS011;7619;48.562;8.910;2023-05-07T01:49:16;4.57;;;3.37;;
15043;SDS011;7619;48.562;8.910;2023-05-07T01:51:44;2.90;;;2.70;;
15043;SDS011;7619;48.562;8.910;2023-05-07T01:54:12;5.20;;;2.80;;
15043;SDS011;7619;48.562;8.910;2023-05-07T01:56:41;3.20;;;2.90;;
15043;SDS011;7619;48.562;8.910;2023-05-07T01:59:09;3.00;;;2.70;;
15043;SDS011;7619;48.562;8.910;2023-05-07T02:01:37;3.57;;;2.90;;
15043;SDS011;7619;48.562;8.910;2023-05-07T02:04:07;4.73;;;3.43;;
15043;SDS011;7619;48.562;8.910;2023-05-07T02:06:35;5.57;;;2.70;;
15043;SDS011;7619;48.562;8.910;2023-05-07T02:09:04;3.03;;;2.50;;
15043;SDS011;7619;48.562;8.910;2023-05-07T02:11:32;6.30;;;3.10;;
15043;SDS011;7619;48.562;8.910;2023-05-07T02:14:01;2.87;;;2.50;;
15043;SDS011;7619;48.562;8.910;2023-05-07T02:16:29;3.10;;;2.47;;
15043;SDS011;7619;48.562;8.910;2023-05-07T02:18:57;3.47;;;2.83;;
15043;SDS011;7619;48.562;8.910;2023-05-07T02:21:25;7.80;;;3.07;;
15043;SDS011;7619;48.562;8.910;2023-05-07T02:23:53;2.93;;;2.73;;
15043;SDS011;7619;48.562;8.910;2023-05-07T02:26:22;4.90;;;2.50;;
15043;SDS011;7619;48.562;8.910;2023-05-07T02:28:50;4.20;;;2.40;;
15043;SDS011;7619;48.562;8.910;2023-05-07T02:31:18;2.80;;;2.37;;
15043;SDS011;7619;48.562;8.910;2023-05-07T02:33:46;5.87;;;2.43;;
15043;SDS011;7619;48.562;8.910;2023-05-07T02:36:14;5.67;;;3.00;;
15043;SDS011;7619;48.562;8.910;2023-05-07T02:38:42;4.77;;;3.20;;
15043;SDS011;7619;48.562;8.910;2023-05-07T02:41:11;3.17;;;2.80;;
15043;SDS011;7619;48.562;8.910;2023-05-07T02:43:39;2.63;;;2.43;;
15043;SDS011;7619;48.562;8.910;2023-05-07T02:46:07;2.57;;;2.37;;
15043;SDS011;7619;48.562;8.910;2023-05-07T02:48:36;2.80;;;2.53;;
15043;SDS011;7619;48.562;8.910;2023-05-07T02:51:04;3.50;;;2.43;;
15043;SDS011;7619;48.562;8.910;2023-05-07T02:53:32;3.70;;;2.17;;
15043;SDS011;7619;48.562;8.910;2023-05-07T02:56:01;2.57;;;2.00;;
15043;SDS011;7619;48.562;8.910;2023-05-07T02:58:29;2.67;;;2.47;;
15043;SDS011;7619;48.562;8.910;2023-05-07T03:00:57;3.00;;;2.60;;
15043;SDS011;7619;48.562;8.910;2023-05-07T03:03:25;5.70;;;2.90;;
15043;SDS011;7619;48.562;8.910;2023-05-07T03:05:54;3.30;;;2.73;;
15043;SDS011;7619;48.562;8.910;2023-05-07T03:08:22;3.27;;;2.97;;
15043;SDS011;7619;48.562;8.910;2023-05-07T03:10:50;4.23;;;2.97;;
15043;SDS011;7619;48.562;8.910;2023-05-07T03:13:18;3.13;;;2.80;;
15043;SDS011;7619;48.562;8.910;2023-05-07T03:15:47;3.77;;;3.03;;
15043;SDS011;7619;48.562;8.910;2023-05-07T03:18:15;5.17;;;2.77;;
15043;SDS011;7619;48.562;8.910;2023-05-07T03:20:43;2.97;;;2.67;;
15043;SDS011;7619;48.562;8.910;2023-05-07T03:23:11;5.83;;;3.07;;
15043;SDS011;7619;48.562;8.910;2023-05-07T03:25:39;3.13;;;2.40;;
15043;SDS011;7619;48.562;8.910;2023-05-07T03:28:07;3.87;;;2.80;;
15043;SDS011;7619;48.562;8.910;2023-05-07T03:30:35;3.67;;;2.57;;
15043;SDS011;7619;48.562;8.910;2023-05-07T03:33:04;2.93;;;2.63;;
15043;SDS011;7619;48.562;8.910;2023-05-07T03:35:32;4.90;;;3.00;;
15043;SDS011;7619;48.562;8.910;2023-05-07T03:38:00;2.57;;;2.37;;
15043;SDS011;7619;48.562;8.910;2023-05-07T03:40:28;3.23;;;2.57;;
15043;SDS011;7619;48.562;8.910;2023-05-07T03:42:56;3.90;;;2.73;;
15043;SDS011;7619;48.562;8.910;2023-05-07T03:45:25;5.30;;;2.70;;
15043;SDS011;7619;48.562;8.910;2023-05-07T03:47:53;3.30;;;2.70;;
15043;SDS011;7619;48.562;8.910;2023-05-07T03:50:21;3.60;;;2.80;;
15043;SDS011;7619;48.562;8.910;2023-05-07T03:52:49;9.30;;;2.90;;
15043;SDS011;7619;48.562;8.910;2023-05-07T03:55:18;3.87;;;3.03;;
15043;SDS011;7619;48.562;8.910;2023-05-07T03:57:46;6.00;;;2.90;;
15043;SDS011;7619;48.562;8.910;2023-05-07T04:00:14;4.43;;;2.77;;
15043;SDS011;7619;48.562;8.910;2023-05-07T04:02:43;6.37;;;3.23;;
15043;SDS011;7619;48.562;8.910;2023-05-07T04:07:47;3.10;;;2.80;;
15043;SDS011;7619;48.562;8.910;2023-05-07T04:10:15;3.90;;;2.53;;
15043;SDS011;7619;48.562;8.910;2023-05-07T04:12:43;5.77;;;2.80;;
15043;SDS011;7619;48.562;8.910;2023-05-07T04:15:12;4.17;;;3.30;;
15043;SDS011;7619;48.562;8.910;2023-05-07T04:17:40;3.57;;;2.80;;
15043;SDS011;7619;48.562;8.910;2023-05-07T04:20:10;2.90;;;2.30;;
15043;SDS011;7619;48.562;8.910;2023-05-07T04:22:38;3.67;;;3.10;;
15043;SDS011;7619;48.562;8.910;2023-05-07T04:25:08;2.63;;;2.43;;
15043;SDS011;7619;48.562;8.910;2023-05-07T04:27:37;3.40;;;3.10;;
15043;SDS011;7619;48.562;8.910;2023-05-07T04:30:06;2.97;;;2.70;;
15043;SDS011;7619;48.562;8.910;2023-05-07T04:32:34;3.93;;;2.60;;
15043;SDS011;7619;48.562;8.910;2023-05-07T04:35:03;2.90;;;2.60;;
15043;SDS011;7619;48.562;8.910;2023-05-07T04:37:32;3.50;;;2.63;;
15043;SDS011;7619;48.562;8.910;2023-05-07T04:40:00;4.37;;;2.77;;
15043;SDS011;7619;48.562;8.910;2023-05-07T04:42:30;5.03;;;3.00;;
15043;SDS011;7619;48.562;8.910;2023-05-07T04:44:58;3.43;;;2.87;;
15043;SDS011;7619;48.562;8.910;2023-05-07T04:47:26;3.13;;;2.83;;
15043;SDS011;7619;48.562;8.910;2023-05-07T04:49:54;3.03;;;2.80;;
15043;SDS011;7619;48.562;8.910;2023-05-07T04:52:22;5.83;;;2.67;;
15043;SDS011;7619;48.562;8.910;2023-05-07T04:54:50;3.20;;;2.27;;
15043;SDS011;7619;48.562;8.910;2023-05-07T04:57:18;2.50;;;2.30;;
15043;SDS011;7619;48.562;8.910;2023-05-07T04:59:46;2.40;;;2.00;;
15043;SDS011;7619;48.562;8.910;2023-05-07T05:02:14;5.97;;;2.30;;
15043;SDS011;7619;48.562;8.910;2023-05-07T05:04:42;2.40;;;2.17;;
15043;SDS011;7619;48.562;8.910;2023-05-07T05:07:10;3.43;;;2.20;;
15043;SDS011;7619;48.562;8.910;2023-05-07T05:09:38;4.07;;;2.50;;
15043;SDS011;7619;48.562;8.910;2023-05-07T05:12:06;2.47;;;1.90;;
15043;SDS011;7619;48.562;8.910;2023-05-07T05:14:34;2.67;;;2.47;;
15043;SDS011;7619;48.562;8.910;2023-05-07T05:17:02;2.20;;;2.00;;
15043;SDS011;7619;48.562;8.910;2023-05-07T05:19:30;4.93;;;1.90;;
15043;SDS011;7619;48.562;8.910;2023-05-07T05:21:58;1.80;;;1.70;;
15043;SDS011;7619;48.562;8.910;2023-05-07T05:24:27;3.30;;;1.90;;
15043;SDS011;7619;48.562;8.910;2023-05-07T05:26:55;3.50;;;1.83;;
15043;SDS011;7619;48.562;8.910;2023-05-07T05:29:23;3.33;;;1.77;;
15043;SDS011;7619;48.562;8.910;2023-05-07T05:31:51;1.70;;;1.60;;
15043;SDS011;7619;48.562;8.910;2023-05-07T05:34:19;2.10;;;1.90;;
15043;SDS011;7619;48.562;8.910;2023-05-07T05:36:48;6.77;;;2.00;;
15043;SDS011;7619;48.562;8.910;2023-05-07T05:39:16;3.03;;;1.80;;
15043;SDS011;7619;48.562;8.910;2023-05-07T05:41:44;3.83;;;1.70;;
15043;SDS011;7619;48.562;8.910;2023-05-07T05:44:12;6.37;;;2.23;;
15043;SDS011;7619;48.562;8.910;2023-05-07T05:46:40;2.07;;;1.87;;
15043;SDS011;7619;48.562;8.910;2023-05-07T05:49:08;1.90;;;1.80;;
15043;SDS011;7619;48.562;8.910;2023-05-07T05:51:36;1.70;;;1.60;;
15043;SDS011;7619;48.562;8.910;2023-05-07T05:54:04;1.63;;;1.53;;
15043;SDS011;7619;48.562;8.910;2023-05-07T05:56:32;1.87;;;1.77;;
15043;SDS011;7619;48.562;8.910;2023-05-07T05:59:00;3.33;;;2.20;;
15043;SDS011;7619;48.562;8.910;2023-05-07T06:01:32;2.67;;;1.80;;
15043;SDS011;7619;48.562;8.910;2023-05-07T06:04:00;2.13;;;2.03;;
15043;SDS011;7619;48.562;8.910;2023-05-07T06:06:28;2.03;;;1.83;;
15043;SDS011;7619;48.562;8.910;2023-05-07T06:08:57;2.17;;;1.87;;
15043;SDS011;7619;48.562;8.910;2023-05-07T06:11:25;2.53;;;2.20;;
15043;SDS011;7619;48.562;8.910;2023-05-07T06:13:53;2.50;;;2.17;;
15043;SDS011;7619;48.562;8.910;2023-05-07T06:16:21;2.93;;;1.90;;
15043;SDS011;7619;48.562;8.910;2023-05-07T06:18:49;3.50;;;1.80;;
15043;SDS011;7619;48.562;8.910;2023-05-07T06:21:17;4.33;;;2.00;;
15043;SDS011;7619;48.562;8.910;2023-05-07T06:23:45;2.43;;;2.10;;
15043;SDS011;7619;48.562;8.910;2023-05-07T06:26:13;2.33;;;2.10;;
15043;SDS011;7619;48.562;8.910;2023-05-07T06:28:41;2.10;;;2.00;;
15043;SDS011;7619;48.562;8.910;2023-05-07T06:31:13;2.33;;;2.10;;
15043;SDS011;7619;48.562;8.910;2023-05-07T06:33:41;2.87;;;2.33;;
15043;SDS011;7619;48.562;8.910;2023-05-07T06:36:09;2.37;;;2.00;;
15043;SDS011;7619;48.562;8.910;2023-05-07T06:38:37;5.13;;;2.00;;
15043;SDS011;7619;48.562;8.910;2023-05-07T06:41:05;1.73;;;1.63;;
15043;SDS011;7619;48.562;8.910;2023-05-07T06:43:34;3.37;;;2.10;;
15043;SDS011;7619;48.562;8.910;2023-05-07T06:46:03;1.60;;;1.50;;
15043;SDS011;7619;48.562;8.910;2023-05-07T06:48:31;2.37;;;2.07;;
15043;SDS011;7619;48.562;8.910;2023-05-07T06:50:59;2.17;;;1.97;;
15043;SDS011;7619;48.562;8.910;2023-05-07T06:53:27;3.83;;;2.27;;
15043;SDS011;7619;48.562;8.910;2023-05-07T06:55:57;2.00;;;1.90;;
15043;SDS011;7619;48.562;8.910;2023-05-07T06:58:25;8.27;;;1.90;;
15043;SDS011;7619;48.562;8.910;2023-05-07T07:00:53;3.93;;;2.13;;
15043;SDS011;7619;48.562;8.910;2023-05-07T07:03:21;2.00;;;1.80;;
15043;SDS011;7619;48.562;8.910;2023-05-07T07:05:51;2.57;;;2.07;;
15043;SDS011;7619;48.562;8.910;2023-05-07T07:08:19;3.47;;;2.50;;
15043;SDS011;7619;48.562;8.910;2023-05-07T07:10:48;2.70;;;2.27;;
15043;SDS011;7619;48.562;8.910;2023-05-07T07:13:16;2.63;;;1.70;;
15043;SDS011;7619;48.562;8.910;2023-05-07T07:15:44;5.77;;;2.50;;
15043;SDS011;7619;48.562;8.910;2023-05-07T07:18:12;2.40;;;2.20;;
15043;SDS011;7619;48.562;8.910;2023-05-07T07:20:40;4.90;;;2.50;;
15043;SDS011;7619;48.562;8.910;2023-05-07T07:23:08;2.30;;;2.10;;
15043;SDS011;7619;48.562;8.910;2023-05-07T07:25:36;2.60;;;2.40;;
15043;SDS011;7619;48.562;8.910;2023-05-07T07:28:04;2.47;;;2.23;;
15043;SDS011;7619;48.562;8.910;2023-05-07T07:30:32;2.27;;;2.00;;
15043;SDS011;7619;48.562;8.910;2023-05-07T07:33:00;2.43;;;2.23;;
15043;SDS011;7619;48.562;8.910;2023-05-07T07:35:29;3.10;;;2.23;;
15043;SDS011;7619;48.562;8.910;2023-05-07T07:37:58;3.30;;;2.20;;
15043;SDS011;7619;48.562;8.910;2023-05-07T07:40:26;4.33;;;3.13;;
15043;SDS011;7619;48.562;8.910;2023-05-07T07:42:54;2.30;;;2.10;;
15043;SDS011;7619;48.562;8.910;2023-05-07T07:45:22;2.53;;;2.23;;
15043;SDS011;7619;48.562;8.910;2023-05-07T07:47:50;2.67;;;2.33;;
15043;SDS011;7619;48.562;8.910;2023-05-07T07:50:18;3.40;;;2.70;;
15043;SDS011;7619;48.562;8.910;2023-05-07T07:52:48;3.37;;;2.97;;
15043;SDS011;7619;48.562;8.910;2023-05-07T07:55:19;3.40;;;2.57;;
15043;SDS011;7619;48.562;8.910;2023-05-07T07:57:47;2.53;;;2.33;;
15043;SDS011;7619;48.562;8.910;2023-05-07T08:00:16;2.80;;;2.50;;
15043;SDS011;7619;48.562;8.910;2023-05-07T08:02:44;3.20;;;2.37;;
15043;SDS011;7619;48.562;8.910;2023-05-07T08:05:12;2.50;;;2.30;;
15043;SDS011;7619;48.562;8.910;2023-05-07T08:07:40;2.70;;;2.50;;
15043;SDS011;7619;48.562;8.910;2023-05-07T08:10:09;3.53;;;2.53;;
15043;SDS011;7619;48.562;8.910;2023-05-07T08:12:37;2.60;;;2.40;;
15043;SDS011;7619;48.562;8.910;2023-05-07T08:15:06;3.50;;;2.40;;
15043;SDS011;7619;48.562;8.910;2023-05-07T08:17:35;4.40;;;2.60;;
15043;SDS011;7619;48.562;8.910;2023-05-07T08:20:03;3.30;;;2.60;;
15043;SDS011;7619;48.562;8.910;2023-05-07T08:22:31;3.80;;;2.30;;
15043;SDS011;7619;48.562;8.910;2023-05-07T08:24:59;2.20;;;2.00;;
15043;SDS011;7619;48.562;8.910;2023-05-07T08:27:27;3.37;;;2.27;;
15043;SDS011;7619;48.562;8.910;2023-05-07T08:29:56;4.20;;;2.67;;
15043;SDS011;7619;48.562;8.910;2023-05-07T08:32:24;2.60;;;2.10;;
15043;SDS011;7619;48.562;8.910;2023-05-07T08:34:52;3.07;;;2.07;;
15043;SDS011;7619;48.562;8.910;2023-05-07T08:37:20;2.40;;;2.20;;
15043;SDS011;7619;48.562;8.910;2023-05-07T08:39:48;2.93;;;1.80;;
15043;SDS011;7619;48.562;8.910;2023-05-07T08:42:16;2.37;;;1.90;;
15043;SDS011;7619;48.562;8.910;2023-05-07T08:44:45;3.00;;;1.90;;
15043;SDS011;7619;48.562;8.910;2023-05-07T08:47:14;2.57;;;2.10;;
15043;SDS011;7619;48.562;8.910;2023-05-07T08:49:42;3.77;;;1.83;;
15043;SDS011;7619;48.562;8.910;2023-05-07T08:52:12;2.67;;;1.93;;
15043;SDS011;7619;48.562;8.910;2023-05-07T08:54:40;3.50;;;2.27;;
15043;SDS011;7619;48.562;8.910;2023-05-07T08:57:08;12.90;;;3.03;;
15043;SDS011;7619;48.562;8.910;2023-05-07T08:59:36;2.50;;;1.80;;
15043;SDS011;7619;48.562;8.910;2023-05-07T09:02:04;2.03;;;1.87;;
15043;SDS011;7619;48.562;8.910;2023-05-07T09:04:33;4.10;;;2.03;;
15043;SDS011;7619;48.562;8.910;2023-05-07T09:07:02;3.47;;;1.67;;
15043;SDS011;7619;48.562;8.910;2023-05-07T09:09:32;2.43;;;2.03;;
15043;SDS011;7619;48.562;8.910;2023-05-07T09:12:00;5.27;;;1.93;;
15043;SDS011;7619;48.562;8.910;2023-05-07T09:14:30;3.60;;;2.10;;
15043;SDS011;7619;48.562;8.910;2023-05-07T09:22:11;2.00;;;1.90;;
15043;SDS011;7619;48.562;8.910;2023-05-07T09:24:40;2.13;;;1.87;;
15043;SDS011;7619;48.562;8.910;2023-05-07T09:27:08;3.90;;;1.47;;
15043;SDS011;7619;48.562;8.910;2023-05-07T09:29:37;2.20;;;1.57;;
15043;SDS011;7619;48.562;8.910;2023-05-07T09:32:06;3.33;;;1.77;;
15043;SDS011;7619;48.562;8.910;2023-05-07T09:34:34;1.47;;;1.37;;
15043;SDS011;7619;48.562;8.910;2023-05-07T09:37:03;4.63;;;1.70;;
15043;SDS011;7619;48.562;8.910;2023-05-07T09:39:41;1.40;;;1.30;;
15043;SDS011;7619;48.562;8.910;2023-05-07T09:42:09;1.83;;;1.73;;
15043;SDS011;7619;48.562;8.910;2023-05-07T09:44:38;1.50;;;1.40;;
15043;SDS011;7619;48.562;8.910;2023-05-07T09:47:06;1.80;;;1.50;;
15043;SDS011;7619;48.562;8.910;2023-05-07T09:49:35;2.10;;;1.67;;
15043;SDS011;7619;48.562;8.910;2023-05-07T09:52:04;1.60;;;1.50;;
15043;SDS011;7619;48.562;8.910;2023-05-07T09:54:35;2.10;;;1.77;;
15043;SDS011;7619;48.562;8.910;2023-05-07T09:57:04;2.10;;;1.60;;
15043;SDS011;7619;48.562;8.910;2023-05-07T09:59:33;1.60;;;1.50;;
15043;SDS011;7619;48.562;8.910;2023-05-07T10:02:02;3.57;;;1.83;;
15043;SDS011;7619;48.562;8.910;2023-05-07T10:04:31;2.33;;;1.73;;
15043;SDS011;7619;48.562;8.910;2023-05-07T10:06:59;1.63;;;1.47;;
15043;SDS011;7619;48.562;8.910;2023-05-07T10:09:27;1.73;;;1.63;;
15043;SDS011;7619;48.562;8.910;2023-05-07T10:11:57;2.10;;;1.67;;
15043;SDS011;7619;48.562;8.910;2023-05-07T10:14:25;2.67;;;1.90;;
15043;SDS011;7619;48.562;8.910;2023-05-07T10:16:55;1.80;;;1.60;;
15043;SDS011;7619;48.562;8.910;2023-05-07T10:19:23;2.90;;;1.60;;
15043;SDS011;7619;48.562;8.910;2023-05-07T10:21:54;2.27;;;1.90;;
15043;SDS011;7619;48.562;8.910;2023-05-07T10:24:25;3.30;;;2.03;;
15043;SDS011;7619;48.562;8.910;2023-05-07T10:26:54;2.17;;;1.80;;
15043;SDS011;7619;48.562;8.910;2023-05-07T10:29:28;4.07;;;1.70;;
15043;SDS011;7619;48.562;8.910;2023-05-07T10:31:57;1.67;;;1.57;;
15043;SDS011;7619;48.562;8.910;2023-05-07T10:34:26;2.20;;;1.50;;
15043;SDS011;7619;48.562;8.910;2023-05-07T10:36:54;2.87;;;1.50;;
15043;SDS011;7619;48.562;8.910;2023-05-07T10:39:23;3.53;;;1.70;;
15043;SDS011;7619;48.562;8.910;2023-05-07T10:41:52;3.30;;;1.50;;
15043;SDS011;7619;48.562;8.910;2023-05-07T10:44:27;1.43;;;1.33;;
15043;SDS011;7619;48.562;8.910;2023-05-07T10:47:05;2.47;;;1.57;;
15043;SDS011;7619;48.562;8.910;2023-05-07T10:49:35;3.93;;;1.50;;
15043;SDS011;7619;48.562;8.910;2023-05-07T10:52:16;2.43;;;1.53;;
15043;SDS011;7619;48.562;8.910;2023-05-07T10:54:45;2.20;;;1.60;;
15043;SDS011;7619;48.562;8.910;2023-05-07T10:59:59;1.53;;;1.43;;
15043;SDS011;7619;48.562;8.910;2023-05-07T11:02:51;1.90;;;1.33;;
15043;SDS011;7619;48.562;8.910;2023-05-07T11:05:19;3.67;;;2.87;;
15043;SDS011;7619;48.562;8.910;2023-05-07T11:07:54;3.83;;;1.50;;
15043;SDS011;7619;48.562;8.910;2023-05-07T11:10:22;2.00;;;1.47;;
15043;SDS011;7619;48.562;8.910;2023-05-07T11:12:50;1.10;;;1.10;;
15043;SDS011;7619;48.562;8.910;2023-05-07T11:18:21;1.73;;;1.30;;
15043;SDS011;7619;48.562;8.910;2023-05-07T11:20:50;2.87;;;1.27;;
15043;SDS011;7619;48.562;8.910;2023-05-07T11:26:05;4.03;;;1.60;;
15043;SDS011;7619;48.562;8.910;2023-05-07T11:28:37;1.90;;;1.47;;
15043;SDS011;7619;48.562;8.910;2023-05-07T11:31:05;2.97;;;1.50;;
15043;SDS011;7619;48.562;8.910;2023-05-07T11:33:33;2.07;;;1.47;;
15043;SDS011;7619;48.562;8.910;2023-05-07T11:36:02;1.40;;;1.30;;
15043;SDS011;7619;48.562;8.910;2023-05-07T11:38:30;2.20;;;1.10;;
15043;SDS011;7619;48.562;8.910;2023-05-07T11:41:00;1.70;;;1.40;;
15043;SDS011;7619;48.562;8.910;2023-05-07T11:43:29;1.43;;;1.33;;
15043;SDS011;7619;48.562;8.910;2023-05-07T11:46:04;1.70;;;1.50;;
15043;SDS011;7619;48.562;8.910;2023-05-07T11:48:28;1.20;;;1.10;;
15043;SDS011;7619;48.562;8.910;2023-05-07T11:51:00;2.50;;;1.67;;
15043;SDS011;7619;48.562;8.910;2023-05-07T11:53:34;3.80;;;1.90;;
15043;SDS011;7619;48.562;8.910;2023-05-07T11:55:58;1.80;;;1.70;;
15043;SDS011;7619;48.562;8.910;2023-05-07T11:58:26;2.27;;;1.47;;
15043;SDS011;7619;48.562;8.910;2023-05-07T12:00:54;1.83;;;1.73;;
15043;SDS011;7619;48.562;8.910;2023-05-07T12:03:22;1.60;;;1.50;;
15043;SDS011;7619;48.562;8.910;2023-05-07T12:05:50;2.13;;;1.47;;
15043;SDS011;7619;48.562;8.910;2023-05-07T12:08:18;2.57;;;1.40;;
15043;SDS011;7619;48.562;8.910;2023-05-07T12:10:48;1.40;;;1.30;;
15043;SDS011;7619;48.562;8.910;2023-05-07T12:13:16;2.20;;;1.10;;
15043;SDS011;7619;48.562;8.910;2023-05-07T12:15:44;1.23;;;1.13;;
15043;SDS011;7619;48.562;8.910;2023-05-07T12:18:12;1.50;;;1.17;;
15043;SDS011;7619;48.562;8.910;2023-05-07T12:20:41;1.50;;;1.30;;
15043;SDS011;7619;48.562;8.910;2023-05-07T12:23:09;1.60;;;1.50;;
15043;SDS011;7619;48.562;8.910;2023-05-07T12:25:38;3.13;;;1.30;;
15043;SDS011;7619;48.562;8.910;2023-05-07T12:28:08;2.27;;;1.20;;
15043;SDS011;7619;48.562;8.910;2023-05-07T12:30:37;1.87;;;1.63;;
15043;SDS011;7619;48.562;8.910;2023-05-07T12:33:06;1.43;;;1.33;;
15043;SDS011;7619;48.562;8.910;2023-05-07T12:35:36;3.50;;;1.70;;
15043;SDS011;7619;48.562;8.910;2023-05-07T12:38:08;1.47;;;1.33;;
15043;SDS011;7619;48.562;8.910;2023-05-07T12:40:37;2.50;;;1.60;;
15043;SDS011;7619;48.562;8.910;2023-05-07T12:43:05;2.40;;;1.77;;
15043;SDS011;7619;48.562;8.910;2023-05-07T12:45:37;5.03;;;1.97;;
15043;SDS011;7619;48.562;8.910;2023-05-07T12:48:06;3.17;;;1.90;;
15043;SDS011;7619;48.562;8.910;2023-05-07T12:50:35;2.77;;;1.90;;
15043;SDS011;7619;48.562;8.910;2023-05-07T12:53:03;4.53;;;2.17;;
15043;SDS011;7619;48.562;8.910;2023-05-07T12:55:34;2.10;;;1.90;;
15043;SDS011;7619;48.562;8.910;2023-05-07T12:58:02;3.83;;;1.93;;
15043;SDS011;7619;48.562;8.910;2023-05-07T13:00:34;2.27;;;2.07;;
15043;SDS011;7619;48.562;8.910;2023-05-07T13:03:02;3.43;;;2.03;;
15043;SDS011;7619;48.562;8.910;2023-05-07T13:05:30;3.70;;;1.93;;
15043;SDS011;7619;48.562;8.910;2023-05-07T13:07:58;5.00;;;2.00;;
15043;SDS011;7619;48.562;8.910;2023-05-07T13:10:26;3.40;;;2.20;;
15043;SDS011;7619;48.562;8.910;2023-05-07T13:12:55;2.57;;;2.20;;
15043;SDS011;7619;48.562;8.910;2023-05-07T13:15:23;3.70;;;2.23;;
15043;SDS011;7619;48.562;8.910;2023-05-07T13:17:51;4.00;;;2.60;;
15043;SDS011;7619;48.562;8.910;2023-05-07T13:20:19;4.20;;;2.50;;
15043;SDS011;7619;48.562;8.910;2023-05-07T13:22:47;4.00;;;2.30;;
15043;SDS011;7619;48.562;8.910;2023-05-07T13:25:15;2.20;;;2.00;;
15043;SDS011;7619;48.562;8.910;2023-05-07T13:27:43;3.27;;;2.30;;
15043;SDS011;7619;48.562;8.910;2023-05-07T13:30:12;6.87;;;2.20;;
15043;SDS011;7619;48.562;8.910;2023-05-07T13:32:39;3.63;;;2.50;;
15043;SDS011;7619;48.562;8.910;2023-05-07T13:35:08;7.73;;;2.40;;
15043;SDS011;7619;48.562;8.910;2023-05-07T13:37:36;2.87;;;2.40;;
15043;SDS011;7619;48.562;8.910;2023-05-07T13:40:05;2.87;;;1.93;;
15043;SDS011;7619;48.562;8.910;2023-05-07T13:42:33;6.73;;;2.77;;
15043;SDS011;7619;48.562;8.910;2023-05-07T13:45:01;5.07;;;2.83;;
15043;SDS011;7619;48.562;8.910;2023-05-07T13:47:31;4.80;;;2.23;;
15043;SDS011;7619;48.562;8.910;2023-05-07T13:49:59;4.10;;;2.33;;
15043;SDS011;7619;48.562;8.910;2023-05-07T13:52:27;4.13;;;2.80;;
15043;SDS011;7619;48.562;8.910;2023-05-07T13:54:55;5.00;;;2.93;;
15043;SDS011;7619;48.562;8.910;2023-05-07T13:57:25;3.53;;;2.30;;
15043;SDS011;7619;48.562;8.910;2023-05-07T13:59:53;3.80;;;2.53;;
15043;SDS011;7619;48.562;8.910;2023-05-07T14:02:21;4.40;;;2.60;;
15043;SDS011;7619;48.562;8.910;2023-05-07T14:04:49;7.97;;;2.93;;
15043;SDS011;7619;48.562;8.910;2023-05-07T14:07:17;2.90;;;2.70;;
15043;SDS011;7619;48.562;8.910;2023-05-07T14:09:45;3.23;;;2.57;;
15043;SDS011;7619;48.562;8.910;2023-05-07T14:12:13;2.93;;;2.20;;
15043;SDS011;7619;48.562;8.910;2023-05-07T14:14:41;8.50;;;2.50;;
15043;SDS011;7619;48.562;8.910;2023-05-07T14:17:09;4.20;;;2.70;;
15043;SDS011;7619;48.562;8.910;2023-05-07T14:19:37;5.70;;;2.53;;
15043;SDS011;7619;48.562;8.910;2023-05-07T14:22:05;2.70;;;2.50;;
15043;SDS011;7619;48.562;8.910;2023-05-07T14:24:33;3.43;;;2.53;;
15043;SDS011;7619;48.562;8.910;2023-05-07T14:27:01;4.13;;;2.50;;
15043;SDS011;7619;48.562;8.910;2023-05-07T14:29:29;4.50;;;2.40;;
15043;SDS011;7619;48.562;8.910;2023-05-07T14:31:57;3.23;;;1.90;;
15043;SDS011;7619;48.562;8.910;2023-05-07T14:34:25;1.87;;;1.53;;
15043;SDS011;7619;48.562;8.910;2023-05-07T14:36:53;3.77;;;1.80;;
15043;SDS011;7619;48.562;8.910;2023-05-07T14:39:22;2.37;;;1.47;;
15043;SDS011;7619;48.562;8.910;2023-05-07T14:41:50;2.07;;;1.33;;
15043;SDS011;7619;48.562;8.910;2023-05-07T14:44:18;2.57;;;1.00;;
15043;SDS011;7619;48.562;8.910;2023-05-07T14:46:46;1.43;;;1.20;;
15043;SDS011;7619;48.562;8.910;2023-05-07T14:49:14;1.43;;;1.30;;
15043;SDS011;7619;48.562;8.910;2023-05-07T14:51:44;1.23;;;1.17;;
15043;SDS011;7619;48.562;8.910;2023-05-07T14:54:12;1.37;;;1.27;;
15043;SDS011;7619;48.562;8.910;2023-05-07T14:56:40;2.93;;;1.40;;
15043;SDS011;7619;48.562;8.910;2023-05-07T14:59:09;3.70;;;1.80;;
15043;SDS011;7619;48.562;8.910;2023-05-07T15:01:38;2.30;;;1.47;;
15043;SDS011;7619;48.562;8.910;2023-05-07T15:04:08;6.33;;;1.80;;
15043;SDS011;7619;48.562;8.910;2023-05-07T15:06:36;1.37;;;1.27;;
15043;SDS011;7619;48.562;8.910;2023-05-07T15:09:04;2.07;;;1.87;;
15043;SDS011;7619;48.562;8.910;2023-05-07T15:11:32;3.23;;;1.90;;
15043;SDS011;7619;48.562;8.910;2023-05-07T15:14:00;2.23;;;1.50;;
15043;SDS011;7619;48.562;8.910;2023-05-07T15:16:28;3.20;;;2.00;;
15043;SDS011;7619;48.562;8.910;2023-05-07T15:18:56;2.20;;;2.00;;
15043;SDS011;7619;48.562;8.910;2023-05-07T15:21:24;1.90;;;1.60;;
15043;SDS011;7619;48.562;8.910;2023-05-07T15:23:53;1.80;;;1.60;;